sensor_id;sensor_type;location;lat;lon;timestamp;temperature;humidity
20459;DHT22;10388;52.314;7.938;2023-11-22T00:01:28;4.20;99.90
20459;DHT22;10388;52.314;7.938;2023-11-22T00:03:58;4.20;99.90
20459;DHT22;10388;52.314;7.938;2023-11-22T00:06:29;4.10;99.90
20459;DHT22;10388;52.314;7.938;2023-11-22T00:09:00;4.10;99.90
20459;DHT22;10388;52.314;7.938;2023-11-22T00:11:30;4.10;99.90
20459;DHT22;10388;52.314;7.938;2023-11-22T00:14:01;4.10;99.90
20459;DHT22;10388;52.314;7.938;2023-11-22T00:16:31;4.10;99.90
20459;DHT22;10388;52.314;7.938;2023-11-22T00:19:02;4.00;99.90
20459;DHT22;10388;52.314;7.938;2023-11-22T00:21:33;4.00;99.90
20459;DHT22;10388;52.314;7.938;2023-11-22T00:24:03;4.00;99.90
20459;DHT22;10388;52.314;7.938;2023-11-22T00:26:35;3.90;99.90
20459;DHT22;10388;52.314;7.938;2023-11-22T00:29:05;3.90;99.90
20459;DHT22;10388;52.314;7.938;2023-11-22T00:31:36;3.90;99.90
20459;DHT22;10388;52.314;7.938;2023-11-22T00:34:07;3.80;99.90
20459;DHT22;10388;52.314;7.938;2023-11-22T00:36:37;3.80;99.90
20459;DHT22;10388;52.314;7.938;2023-11-22T00:39:08;3.70;99.90
20459;DHT22;10388;52.314;7.938;2023-11-22T00:41:43;3.70;99.90
20459;DHT22;10388;52.314;7.938;2023-11-22T00:44:14;3.60;99.90
20459;DHT22;10388;52.314;7.938;2023-11-22T00:46:45;3.50;99.90
20459;DHT22;10388;52.314;7.938;2023-11-22T00:49:16;3.50;99.90
20459;DHT22;10388;52.314;7.938;2023-11-22T00:51:46;3.40;99.90
20459;DHT22;10388;52.314;7.938;2023-11-22T00:54:18;3.30;99.90
20459;DHT22;10388;52.314;7.938;2023-11-22T00:56:50;3.30;99.90
20459;DHT22;10388;52.314;7.938;2023-11-22T00:59:20;3.30;99.90
20459;DHT22;10388;52.314;7.938;2023-11-22T01:01:51;3.20;99.90
20459;DHT22;10388;52.314;7.938;2023-11-22T01:04:21;3.10;99.90
20459;DHT22;10388;52.314;7.938;2023-11-22T01:06:52;3.10;99.90
20459;DHT22;10388;52.314;7.938;2023-11-22T01:09:23;3.10;99.90
20459;DHT22;10388;52.314;7.938;2023-11-22T01:11:53;3.10;99.90
20459;DHT22;10388;52.314;7.938;2023-11-22T01:17:20;2.90;99.90
20459;DHT22;10388;52.314;7.938;2023-11-22T01:19:51;2.90;99.90
20459;DHT22;10388;52.314;7.938;2023-11-22T01:22:22;2.80;99.90
20459;DHT22;10388;52.314;7.938;2023-11-22T01:24:53;2.80;99.90
20459;DHT22;10388;52.314;7.938;2023-11-22T01:27:24;2.70;99.90
20459;DHT22;10388;52.314;7.938;2023-11-22T01:29:54;2.80;99.90
20459;DHT22;10388;52.314;7.938;2023-11-22T01:32:25;2.70;99.90
20459;DHT22;10388;52.314;7.938;2023-11-22T01:34:56;2.70;99.90
20459;DHT22;10388;52.314;7.938;2023-11-22T01:37:29;2.60;99.90
20459;DHT22;10388;52.314;7.938;2023-11-22T01:39:59;2.60;99.90
20459;DHT22;10388;52.314;7.938;2023-11-22T01:42:30;2.70;99.90
20459;DHT22;10388;52.314;7.938;2023-11-22T01:45:03;2.60;99.90
20459;DHT22;10388;52.314;7.938;2023-11-22T01:47:38;2.60;99.90
20459;DHT22;10388;52.314;7.938;2023-11-22T01:50:09;2.50;99.90
20459;DHT22;10388;52.314;7.938;2023-11-22T01:52:40;2.50;99.90
20459;DHT22;10388;52.314;7.938;2023-11-22T01:55:12;2.50;99.90
20459;DHT22;10388;52.314;7.938;2023-11-22T01:57:44;2.50;99.90
20459;DHT22;10388;52.314;7.938;2023-11-22T02:00:15;2.50;99.90
20459;DHT22;10388;52.314;7.938;2023-11-22T02:02:45;2.50;99.90
20459;DHT22;10388;52.314;7.938;2023-11-22T02:05:19;2.50;99.90
20459;DHT22;10388;52.314;7.938;2023-11-22T02:07:50;2.40;99.90
20459;DHT22;10388;52.314;7.938;2023-11-22T02:10:20;2.40;99.90
20459;DHT22;10388;52.314;7.938;2023-11-22T02:12:51;2.40;99.90
20459;DHT22;10388;52.314;7.938;2023-11-22T02:15:21;2.40;99.90
20459;DHT22;10388;52.314;7.938;2023-11-22T02:17:52;2.40;99.90
20459;DHT22;10388;52.314;7.938;2023-11-22T02:20:23;2.40;99.90
20459;DHT22;10388;52.314;7.938;2023-11-22T02:22:56;2.30;99.90
20459;DHT22;10388;52.314;7.938;2023-11-22T02:25:27;2.30;99.90
20459;DHT22;10388;52.314;7.938;2023-11-22T02:27:58;2.30;99.90
20459;DHT22;10388;52.314;7.938;2023-11-22T02:30:28;2.20;99.90
20459;DHT22;10388;52.314;7.938;2023-11-22T02:32:59;2.20;99.90
20459;DHT22;10388;52.314;7.938;2023-11-22T02:35:30;2.10;99.90
20459;DHT22;10388;52.314;7.938;2023-11-22T02:38:02;2.10;99.90
20459;DHT22;10388;52.314;7.938;2023-11-22T02:40:35;2.00;99.90
20459;DHT22;10388;52.314;7.938;2023-11-22T02:43:06;2.00;99.90
20459;DHT22;10388;52.314;7.938;2023-11-22T02:45:39;2.00;99.90
20459;DHT22;10388;52.314;7.938;2023-11-22T02:48:09;1.90;99.90
20459;DHT22;10388;52.314;7.938;2023-11-22T02:50:40;1.90;99.90
20459;DHT22;10388;52.314;7.938;2023-11-22T02:53:13;1.80;99.90
20459;DHT22;10388;52.314;7.938;2023-11-22T02:55:44;1.80;99.90
20459;DHT22;10388;52.314;7.938;2023-11-22T02:58:15;1.80;99.90
20459;DHT22;10388;52.314;7.938;2023-11-22T03:00:46;1.80;99.90
20459;DHT22;10388;52.314;7.938;2023-11-22T03:03:17;1.70;99.90
20459;DHT22;10388;52.314;7.938;2023-11-22T03:05:47;1.70;99.90
20459;DHT22;10388;52.314;7.938;2023-11-22T03:08:18;1.70;99.90
20459;DHT22;10388;52.314;7.938;2023-11-22T03:10:49;1.70;99.90
20459;DHT22;10388;52.314;7.938;2023-11-22T03:13:21;1.70;99.90
20459;DHT22;10388;52.314;7.938;2023-11-22T03:15:54;1.60;99.90
20459;DHT22;10388;52.314;7.938;2023-11-22T03:18:25;1.60;99.90
20459;DHT22;10388;52.314;7.938;2023-11-22T03:20:56;1.50;99.90
20459;DHT22;10388;52.314;7.938;2023-11-22T03:23:27;1.50;99.90
20459;DHT22;10388;52.314;7.938;2023-11-22T03:25:58;1.40;99.90
20459;DHT22;10388;52.314;7.938;2023-11-22T03:28:28;1.40;99.90
20459;DHT22;10388;52.314;7.938;2023-11-22T03:31:00;1.40;99.90
20459;DHT22;10388;52.314;7.938;2023-11-22T03:33:33;1.30;99.90
20459;DHT22;10388;52.314;7.938;2023-11-22T03:36:04;1.30;99.90
20459;DHT22;10388;52.314;7.938;2023-11-22T03:38:35;1.30;99.90
20459;DHT22;10388;52.314;7.938;2023-11-22T03:41:06;1.20;99.90
20459;DHT22;10388;52.314;7.938;2023-11-22T03:43:39;1.20;99.90
20459;DHT22;10388;52.314;7.938;2023-11-22T03:46:09;1.10;99.90
20459;DHT22;10388;52.314;7.938;2023-11-22T03:48:41;1.10;99.90
20459;DHT22;10388;52.314;7.938;2023-11-22T03:51:18;1.10;99.90
20459;DHT22;10388;52.314;7.938;2023-11-22T03:53:57;1.10;99.90
20459;DHT22;10388;52.314;7.938;2023-11-22T03:56:31;1.00;99.90
20459;DHT22;10388;52.314;7.938;2023-11-22T03:59:01;1.00;99.90
20459;DHT22;10388;52.314;7.938;2023-11-22T04:01:32;0.90;99.90
20459;DHT22;10388;52.314;7.938;2023-11-22T04:04:02;0.90;99.90
20459;DHT22;10388;52.314;7.938;2023-11-22T04:06:33;0.80;99.90
20459;DHT22;10388;52.314;7.938;2023-11-22T04:09:04;0.80;99.90
20459;DHT22;10388;52.314;7.938;2023-11-22T04:11:38;0.80;99.90
20459;DHT22;10388;52.314;7.938;2023-11-22T04:14:09;0.80;99.90
20459;DHT22;10388;52.314;7.938;2023-11-22T04:16:39;0.70;99.90
20459;DHT22;10388;52.314;7.938;2023-11-22T04:19:10;0.70;99.90
20459;DHT22;10388;52.314;7.938;2023-11-22T04:21:41;0.60;99.90
20459;DHT22;10388;52.314;7.938;2023-11-22T04:24:14;0.60;99.90
20459;DHT22;10388;52.314;7.938;2023-11-22T04:26:48;0.60;99.90
20459;DHT22;10388;52.314;7.938;2023-11-22T04:29:19;0.60;99.90
20459;DHT22;10388;52.314;7.938;2023-11-22T04:31:51;0.60;99.90
20459;DHT22;10388;52.314;7.938;2023-11-22T04:34:25;0.60;99.90
20459;DHT22;10388;52.314;7.938;2023-11-22T04:36:56;0.50;99.90
20459;DHT22;10388;52.314;7.938;2023-11-22T04:39:26;0.50;99.90
20459;DHT22;10388;52.314;7.938;2023-11-22T04:41:57;0.50;99.90
20459;DHT22;10388;52.314;7.938;2023-11-22T04:44:28;0.40;99.90
20459;DHT22;10388;52.314;7.938;2023-11-22T04:46:58;0.40;99.90
20459;DHT22;10388;52.314;7.938;2023-11-22T04:49:32;0.40;99.90
20459;DHT22;10388;52.314;7.938;2023-11-22T04:52:03;0.30;99.90
20459;DHT22;10388;52.314;7.938;2023-11-22T04:54:38;0.30;99.90
20459;DHT22;10388;52.314;7.938;2023-11-22T04:57:08;0.40;99.90
20459;DHT22;10388;52.314;7.938;2023-11-22T04:59:39;0.30;99.90
20459;DHT22;10388;52.314;7.938;2023-11-22T05:02:13;0.30;99.90
20459;DHT22;10388;52.314;7.938;2023-11-22T05:04:46;0.30;99.90
20459;DHT22;10388;52.314;7.938;2023-11-22T05:07:20;0.30;99.90
20459;DHT22;10388;52.314;7.938;2023-11-22T05:09:54;0.30;99.90
20459;DHT22;10388;52.314;7.938;2023-11-22T05:12:24;0.30;99.90
20459;DHT22;10388;52.314;7.938;2023-11-22T05:14:57;0.30;99.90
20459;DHT22;10388;52.314;7.938;2023-11-22T05:17:48;0.20;99.90
20459;DHT22;10388;52.314;7.938;2023-11-22T05:20:28;0.20;99.90
20459;DHT22;10388;52.314;7.938;2023-11-22T05:22:59;0.10;99.90
20459;DHT22;10388;52.314;7.938;2023-11-22T05:25:32;0.10;99.90
20459;DHT22;10388;52.314;7.938;2023-11-22T05:28:02;0.10;99.90
20459;DHT22;10388;52.314;7.938;2023-11-22T05:30:34;0.10;99.90
20459;DHT22;10388;52.314;7.938;2023-11-22T05:33:07;0.00;99.90
20459;DHT22;10388;52.314;7.938;2023-11-22T05:36:03;0.00;99.90
20459;DHT22;10388;52.314;7.938;2023-11-22T05:38:45;0.00;99.90
20459;DHT22;10388;52.314;7.938;2023-11-22T05:41:18;0.00;99.90
20459;DHT22;10388;52.314;7.938;2023-11-22T05:43:48;-0.10;99.90
20459;DHT22;10388;52.314;7.938;2023-11-22T05:46:20;-0.10;99.90
20459;DHT22;10388;52.314;7.938;2023-11-22T05:48:55;-0.10;99.90
20459;DHT22;10388;52.314;7.938;2023-11-22T05:51:31;-0.10;99.90
20459;DHT22;10388;52.314;7.938;2023-11-22T05:54:01;-0.10;99.90
20459;DHT22;10388;52.314;7.938;2023-11-22T05:56:32;0.00;99.90
20459;DHT22;10388;52.314;7.938;2023-11-22T05:59:02;-0.10;99.90
20459;DHT22;10388;52.314;7.938;2023-11-22T06:01:34;-0.10;99.90
20459;DHT22;10388;52.314;7.938;2023-11-22T06:04:04;-0.20;99.90
20459;DHT22;10388;52.314;7.938;2023-11-22T06:06:36;-0.20;99.90
20459;DHT22;10388;52.314;7.938;2023-11-22T06:09:07;-0.20;99.90
20459;DHT22;10388;52.314;7.938;2023-11-22T06:11:37;-0.20;99.90
20459;DHT22;10388;52.314;7.938;2023-11-22T06:14:08;-0.20;99.90
20459;DHT22;10388;52.314;7.938;2023-11-22T06:16:38;-0.30;99.90
20459;DHT22;10388;52.314;7.938;2023-11-22T06:19:09;-0.30;99.90
20459;DHT22;10388;52.314;7.938;2023-11-22T06:21:39;-0.30;99.90
20459;DHT22;10388;52.314;7.938;2023-11-22T06:24:10;-0.30;99.90
20459;DHT22;10388;52.314;7.938;2023-11-22T06:26:46;-0.30;99.90
20459;DHT22;10388;52.314;7.938;2023-11-22T06:29:16;-0.30;99.90
20459;DHT22;10388;52.314;7.938;2023-11-22T06:31:47;-0.40;99.90
20459;DHT22;10388;52.314;7.938;2023-11-22T06:34:18;-0.40;99.90
20459;DHT22;10388;52.314;7.938;2023-11-22T06:36:48;-0.40;99.90
20459;DHT22;10388;52.314;7.938;2023-11-22T06:39:19;-0.40;99.90
20459;DHT22;10388;52.314;7.938;2023-11-22T06:41:50;-0.50;99.90
20459;DHT22;10388;52.314;7.938;2023-11-22T06:44:21;-0.50;99.90
20459;DHT22;10388;52.314;7.938;2023-11-22T06:46:51;-0.50;99.90
20459;DHT22;10388;52.314;7.938;2023-11-22T06:49:24;-0.40;99.90
20459;DHT22;10388;52.314;7.938;2023-11-22T06:51:54;-0.40;99.90
20459;DHT22;10388;52.314;7.938;2023-11-22T06:54:25;-0.40;99.90
20459;DHT22;10388;52.314;7.938;2023-11-22T06:56:55;-0.40;99.90
20459;DHT22;10388;52.314;7.938;2023-11-22T06:59:26;-0.40;99.90
20459;DHT22;10388;52.314;7.938;2023-11-22T07:01:56;-0.40;99.90
20459;DHT22;10388;52.314;7.938;2023-11-22T07:04:34;-0.40;99.90
20459;DHT22;10388;52.314;7.938;2023-11-22T07:07:05;-0.40;99.90
20459;DHT22;10388;52.314;7.938;2023-11-22T07:09:35;-0.40;99.90
20459;DHT22;10388;52.314;7.938;2023-11-22T07:12:07;-0.40;99.90
20459;DHT22;10388;52.314;7.938;2023-11-22T07:14:38;-0.40;99.90
20459;DHT22;10388;52.314;7.938;2023-11-22T07:17:09;-0.40;99.90
20459;DHT22;10388;52.314;7.938;2023-11-22T07:19:39;-0.40;99.90
20459;DHT22;10388;52.314;7.938;2023-11-22T07:22:16;-0.40;99.90
20459;DHT22;10388;52.314;7.938;2023-11-22T07:24:48;-0.40;99.90
20459;DHT22;10388;52.314;7.938;2023-11-22T07:27:21;-0.40;99.90
20459;DHT22;10388;52.314;7.938;2023-11-22T07:29:52;-0.40;99.90
20459;DHT22;10388;52.314;7.938;2023-11-22T07:32:23;-0.40;99.90
20459;DHT22;10388;52.314;7.938;2023-11-22T07:34:54;-0.40;99.90
20459;DHT22;10388;52.314;7.938;2023-11-22T07:37:26;-0.40;99.90
20459;DHT22;10388;52.314;7.938;2023-11-22T07:39:57;-0.40;99.90
20459;DHT22;10388;52.314;7.938;2023-11-22T07:42:27;-0.30;99.90
20459;DHT22;10388;52.314;7.938;2023-11-22T07:44:58;-0.30;99.90
20459;DHT22;10388;52.314;7.938;2023-11-22T07:47:29;-0.30;99.90
20459;DHT22;10388;52.314;7.938;2023-11-22T07:49:59;-0.30;99.90
20459;DHT22;10388;52.314;7.938;2023-11-22T07:52:31;-0.20;99.90
20459;DHT22;10388;52.314;7.938;2023-11-22T07:55:02;-0.20;99.90
20459;DHT22;10388;52.314;7.938;2023-11-22T07:57:34;-0.20;99.90
20459;DHT22;10388;52.314;7.938;2023-11-22T08:00:05;-0.20;99.90
20459;DHT22;10388;52.314;7.938;2023-11-22T08:02:38;-0.10;99.90
20459;DHT22;10388;52.314;7.938;2023-11-22T08:05:13;-0.10;99.90
20459;DHT22;10388;52.314;7.938;2023-11-22T08:07:45;-0.10;99.90
20459;DHT22;10388;52.314;7.938;2023-11-22T08:10:16;0.00;99.90
20459;DHT22;10388;52.314;7.938;2023-11-22T08:12:49;0.10;99.90
20459;DHT22;10388;52.314;7.938;2023-11-22T08:15:20;0.10;99.90
20459;DHT22;10388;52.314;7.938;2023-11-22T08:17:52;0.10;99.90
20459;DHT22;10388;52.314;7.938;2023-11-22T08:20:22;0.10;99.90
20459;DHT22;10388;52.314;7.938;2023-11-22T08:22:53;0.20;99.90
20459;DHT22;10388;52.314;7.938;2023-11-22T08:25:24;0.20;99.90
20459;DHT22;10388;52.314;7.938;2023-11-22T08:27:54;0.20;99.90
20459;DHT22;10388;52.314;7.938;2023-11-22T08:30:25;0.30;99.90
20459;DHT22;10388;52.314;7.938;2023-11-22T08:32:56;0.40;99.90
20459;DHT22;10388;52.314;7.938;2023-11-22T08:35:26;0.40;99.90
20459;DHT22;10388;52.314;7.938;2023-11-22T08:37:57;0.40;99.90
20459;DHT22;10388;52.314;7.938;2023-11-22T08:40:29;0.40;99.90
20459;DHT22;10388;52.314;7.938;2023-11-22T08:42:59;0.50;99.90
20459;DHT22;10388;52.314;7.938;2023-11-22T08:45:30;0.50;99.90
20459;DHT22;10388;52.314;7.938;2023-11-22T08:48:01;0.50;99.90
20459;DHT22;10388;52.314;7.938;2023-11-22T08:50:33;0.60;99.90
20459;DHT22;10388;52.314;7.938;2023-11-22T08:53:03;0.70;99.90
20459;DHT22;10388;52.314;7.938;2023-11-22T08:55:36;0.70;99.90
20459;DHT22;10388;52.314;7.938;2023-11-22T08:58:06;0.80;99.90
20459;DHT22;10388;52.314;7.938;2023-11-22T09:00:38;0.90;99.90
20459;DHT22;10388;52.314;7.938;2023-11-22T09:03:09;0.90;99.90
20459;DHT22;10388;52.314;7.938;2023-11-22T09:05:43;1.00;99.90
20459;DHT22;10388;52.314;7.938;2023-11-22T09:08:16;1.10;99.90
20459;DHT22;10388;52.314;7.938;2023-11-22T09:10:47;1.10;99.90
20459;DHT22;10388;52.314;7.938;2023-11-22T09:13:17;1.20;99.90
20459;DHT22;10388;52.314;7.938;2023-11-22T09:15:50;1.20;99.90
20459;DHT22;10388;52.314;7.938;2023-11-22T09:18:21;1.20;99.90
20459;DHT22;10388;52.314;7.938;2023-11-22T09:20:52;1.30;99.90
20459;DHT22;10388;52.314;7.938;2023-11-22T09:23:22;1.40;99.90
20459;DHT22;10388;52.314;7.938;2023-11-22T09:25:56;1.40;99.90
20459;DHT22;10388;52.314;7.938;2023-11-22T09:28:27;1.40;99.90
20459;DHT22;10388;52.314;7.938;2023-11-22T09:30:57;1.50;99.90
20459;DHT22;10388;52.314;7.938;2023-11-22T09:33:36;1.60;99.90
20459;DHT22;10388;52.314;7.938;2023-11-22T09:36:07;1.60;99.90
20459;DHT22;10388;52.314;7.938;2023-11-22T09:38:38;1.70;99.90
20459;DHT22;10388;52.314;7.938;2023-11-22T09:41:09;1.70;99.90
20459;DHT22;10388;52.314;7.938;2023-11-22T09:43:41;1.80;99.90
20459;DHT22;10388;52.314;7.938;2023-11-22T09:46:14;1.80;99.90
20459;DHT22;10388;52.314;7.938;2023-11-22T09:48:47;1.90;99.90
20459;DHT22;10388;52.314;7.938;2023-11-22T09:51:44;1.90;99.90
20459;DHT22;10388;52.314;7.938;2023-11-22T09:54:29;2.00;99.90
20459;DHT22;10388;52.314;7.938;2023-11-22T09:57:27;2.00;99.90
20459;DHT22;10388;52.314;7.938;2023-11-22T10:00:17;2.10;99.90
20459;DHT22;10388;52.314;7.938;2023-11-22T10:03:06;2.20;99.90
20459;DHT22;10388;52.314;7.938;2023-11-22T10:05:54;2.20;99.90
20459;DHT22;10388;52.314;7.938;2023-11-22T10:08:32;2.30;99.90
20459;DHT22;10388;52.314;7.938;2023-11-22T10:11:37;2.40;99.90
20459;DHT22;10388;52.314;7.938;2023-11-22T10:14:37;2.40;99.90
20459;DHT22;10388;52.314;7.938;2023-11-22T10:17:37;2.50;99.90
20459;DHT22;10388;52.314;7.938;2023-11-22T10:20:49;2.60;99.90
20459;DHT22;10388;52.314;7.938;2023-11-22T10:23:33;2.60;99.90
20459;DHT22;10388;52.314;7.938;2023-11-22T10:26:21;2.60;99.90
20459;DHT22;10388;52.314;7.938;2023-11-22T10:32:26;2.70;99.90
20459;DHT22;10388;52.314;7.938;2023-11-22T10:35:13;2.80;99.90
20459;DHT22;10388;52.314;7.938;2023-11-22T10:38:01;2.90;99.90
20459;DHT22;10388;52.314;7.938;2023-11-22T10:40:39;3.00;99.90
20459;DHT22;10388;52.314;7.938;2023-11-22T10:43:36;3.10;99.90
20459;DHT22;10388;52.314;7.938;2023-11-22T10:46:27;3.10;99.90
20459;DHT22;10388;52.314;7.938;2023-11-22T10:49:36;3.10;99.90
20459;DHT22;10388;52.314;7.938;2023-11-22T10:52:42;3.20;99.90
20459;DHT22;10388;52.314;7.938;2023-11-22T10:55:33;3.20;99.90
20459;DHT22;10388;52.314;7.938;2023-11-22T10:58:18;3.30;99.90
20459;DHT22;10388;52.314;7.938;2023-11-22T11:01:18;3.30;99.90
20459;DHT22;10388;52.314;7.938;2023-11-22T11:04:52;3.30;99.90
20459;DHT22;10388;52.314;7.938;2023-11-22T11:11:15;3.50;99.90
20459;DHT22;10388;52.314;7.938;2023-11-22T11:17:20;3.50;99.90
20459;DHT22;10388;52.314;7.938;2023-11-22T11:20:18;3.60;99.90
20459;DHT22;10388;52.314;7.938;2023-11-22T11:23:21;3.60;99.90
20459;DHT22;10388;52.314;7.938;2023-11-22T11:26:31;3.70;99.90
20459;DHT22;10388;52.314;7.938;2023-11-22T11:32:40;3.70;99.90
20459;DHT22;10388;52.314;7.938;2023-11-22T11:39:12;3.80;99.90
20459;DHT22;10388;52.314;7.938;2023-11-22T11:52:06;3.90;99.90
20459;DHT22;10388;52.314;7.938;2023-11-22T11:58:34;4.00;99.90
20459;DHT22;10388;52.314;7.938;2023-11-22T12:01:46;3.90;99.90
20459;DHT22;10388;52.314;7.938;2023-11-22T12:07:45;4.10;99.90
20459;DHT22;10388;52.314;7.938;2023-11-22T12:10:22;4.10;99.90
20459;DHT22;10388;52.314;7.938;2023-11-22T12:13:02;4.20;99.90
20459;DHT22;10388;52.314;7.938;2023-11-22T12:15:50;4.20;99.90
20459;DHT22;10388;52.314;7.938;2023-11-22T12:18:26;4.20;99.90
20459;DHT22;10388;52.314;7.938;2023-11-22T12:21:12;4.20;99.90
20459;DHT22;10388;52.314;7.938;2023-11-22T12:23:51;4.30;99.90
20459;DHT22;10388;52.314;7.938;2023-11-22T12:26:49;4.30;99.90
20459;DHT22;10388;52.314;7.938;2023-11-22T12:29:54;4.30;99.90
20459;DHT22;10388;52.314;7.938;2023-11-22T12:38:27;4.40;99.90
20459;DHT22;10388;52.314;7.938;2023-11-22T12:41:20;4.50;99.90
20459;DHT22;10388;52.314;7.938;2023-11-22T12:44:12;4.60;99.90
20459;DHT22;10388;52.314;7.938;2023-11-22T12:50:18;4.70;99.90
20459;DHT22;10388;52.314;7.938;2023-11-22T12:56:37;4.80;99.90
20459;DHT22;10388;52.314;7.938;2023-11-22T12:59:57;4.80;99.90
20459;DHT22;10388;52.314;7.938;2023-11-22T13:02:54;4.70;99.90
20459;DHT22;10388;52.314;7.938;2023-11-22T13:05:38;4.60;99.90
20459;DHT22;10388;52.314;7.938;2023-11-22T13:08:26;4.60;99.90
20459;DHT22;10388;52.314;7.938;2023-11-22T13:11:31;4.60;99.90
20459;DHT22;10388;52.314;7.938;2023-11-22T13:14:03;4.60;99.90
20459;DHT22;10388;52.314;7.938;2023-11-22T13:16:49;4.50;99.90
20459;DHT22;10388;52.314;7.938;2023-11-22T13:20:00;4.50;99.90
20459;DHT22;10388;52.314;7.938;2023-11-22T13:26:33;4.50;99.90
20459;DHT22;10388;52.314;7.938;2023-11-22T13:29:15;4.50;99.90
20459;DHT22;10388;52.314;7.938;2023-11-22T13:31:54;4.60;99.90
20459;DHT22;10388;52.314;7.938;2023-11-22T13:34:33;4.50;99.90
20459;DHT22;10388;52.314;7.938;2023-11-22T13:37:14;4.50;99.90
20459;DHT22;10388;52.314;7.938;2023-11-22T13:39:53;4.50;99.90
20459;DHT22;10388;52.314;7.938;2023-11-22T13:42:52;4.50;99.90
20459;DHT22;10388;52.314;7.938;2023-11-22T13:45:43;4.50;99.90
20459;DHT22;10388;52.314;7.938;2023-11-22T13:48:19;4.40;99.90
20459;DHT22;10388;52.314;7.938;2023-11-22T13:54:16;4.40;99.90
20459;DHT22;10388;52.314;7.938;2023-11-22T13:57:08;4.30;99.90
20459;DHT22;10388;52.314;7.938;2023-11-22T14:00:00;4.30;99.90
20459;DHT22;10388;52.314;7.938;2023-11-22T14:02:49;4.30;99.90
20459;DHT22;10388;52.314;7.938;2023-11-22T14:05:36;4.30;99.90
20459;DHT22;10388;52.314;7.938;2023-11-22T14:08:31;4.20;99.90
20459;DHT22;10388;52.314;7.938;2023-11-22T14:11:25;4.20;99.90
20459;DHT22;10388;52.314;7.938;2023-11-22T14:14:25;4.10;99.90
20459;DHT22;10388;52.314;7.938;2023-11-22T14:17:19;4.20;99.90
20459;DHT22;10388;52.314;7.938;2023-11-22T14:20:19;4.10;99.90
20459;DHT22;10388;52.314;7.938;2023-11-22T14:23:10;4.10;99.90
20459;DHT22;10388;52.314;7.938;2023-11-22T14:26:00;4.00;99.90
20459;DHT22;10388;52.314;7.938;2023-11-22T14:28:51;4.00;99.90
20459;DHT22;10388;52.314;7.938;2023-11-22T14:32:01;4.00;99.90
20459;DHT22;10388;52.314;7.938;2023-11-22T14:38:28;3.90;99.90
20459;DHT22;10388;52.314;7.938;2023-11-22T14:41:20;3.90;99.90
20459;DHT22;10388;52.314;7.938;2023-11-22T14:44:09;3.90;99.90
20459;DHT22;10388;52.314;7.938;2023-11-22T14:46:56;3.80;99.90
20459;DHT22;10388;52.314;7.938;2023-11-22T14:49:53;3.80;99.90
20459;DHT22;10388;52.314;7.938;2023-11-22T14:52:33;3.80;99.90
20459;DHT22;10388;52.314;7.938;2023-11-22T14:55:10;3.80;99.90
20459;DHT22;10388;52.314;7.938;2023-11-22T14:57:59;3.80;99.90
20459;DHT22;10388;52.314;7.938;2023-11-22T15:00:50;3.80;99.90
20459;DHT22;10388;52.314;7.938;2023-11-22T15:03:33;3.80;99.90
20459;DHT22;10388;52.314;7.938;2023-11-22T15:06:43;3.70;99.90
20459;DHT22;10388;52.314;7.938;2023-11-22T15:09:18;3.70;99.90
20459;DHT22;10388;52.314;7.938;2023-11-22T15:15:14;3.70;99.90
20459;DHT22;10388;52.314;7.938;2023-11-22T15:18:11;3.70;99.90
20459;DHT22;10388;52.314;7.938;2023-11-22T15:21:03;3.70;99.90
20459;DHT22;10388;52.314;7.938;2023-11-22T15:23:51;3.70;99.90
20459;DHT22;10388;52.314;7.938;2023-11-22T15:26:49;3.60;99.90
20459;DHT22;10388;52.314;7.938;2023-11-22T15:29:51;3.70;99.90
20459;DHT22;10388;52.314;7.938;2023-11-22T15:32:35;3.60;99.90
20459;DHT22;10388;52.314;7.938;2023-11-22T15:35:16;3.60;99.90
20459;DHT22;10388;52.314;7.938;2023-11-22T15:38:31;3.60;99.90
20459;DHT22;10388;52.314;7.938;2023-11-22T15:41:24;3.50;99.90
20459;DHT22;10388;52.314;7.938;2023-11-22T15:44:23;3.50;99.90
20459;DHT22;10388;52.314;7.938;2023-11-22T15:46:57;3.50;99.90
20459;DHT22;10388;52.314;7.938;2023-11-22T15:49:27;3.50;99.90
20459;DHT22;10388;52.314;7.938;2023-11-22T15:51:58;3.50;99.90
20459;DHT22;10388;52.314;7.938;2023-11-22T15:54:28;3.50;99.90
20459;DHT22;10388;52.314;7.938;2023-11-22T15:56:59;3.50;99.90
20459;DHT22;10388;52.314;7.938;2023-11-22T15:59:30;3.50;99.90
20459;DHT22;10388;52.314;7.938;2023-11-22T16:02:00;3.40;99.90
20459;DHT22;10388;52.314;7.938;2023-11-22T16:04:32;3.50;99.90
20459;DHT22;10388;52.314;7.938;2023-11-22T16:07:03;3.40;99.90
20459;DHT22;10388;52.314;7.938;2023-11-22T16:09:34;3.40;99.90
20459;DHT22;10388;52.314;7.938;2023-11-22T16:12:04;3.40;99.90
20459;DHT22;10388;52.314;7.938;2023-11-22T16:14:35;3.40;99.90
20459;DHT22;10388;52.314;7.938;2023-11-22T16:17:06;3.40;99.90
20459;DHT22;10388;52.314;7.938;2023-11-22T16:19:36;3.40;99.90
20459;DHT22;10388;52.314;7.938;2023-11-22T16:22:07;3.40;99.90
20459;DHT22;10388;52.314;7.938;2023-11-22T16:24:39;3.40;99.90
20459;DHT22;10388;52.314;7.938;2023-11-22T16:27:09;3.40;99.90
20459;DHT22;10388;52.314;7.938;2023-11-22T16:29:40;3.40;99.90
20459;DHT22;10388;52.314;7.938;2023-11-22T16:32:11;3.40;99.90
20459;DHT22;10388;52.314;7.938;2023-11-22T16:34:42;3.40;99.90
20459;DHT22;10388;52.314;7.938;2023-11-22T16:37:12;3.40;99.90
20459;DHT22;10388;52.314;7.938;2023-11-22T16:39:42;3.40;99.90
20459;DHT22;10388;52.314;7.938;2023-11-22T16:42:13;3.40;99.90
20459;DHT22;10388;52.314;7.938;2023-11-22T16:44:44;3.40;99.90
20459;DHT22;10388;52.314;7.938;2023-11-22T16:47:15;3.40;99.90
20459;DHT22;10388;52.314;7.938;2023-11-22T16:49:46;3.40;99.90
20459;DHT22;10388;52.314;7.938;2023-11-22T16:52:17;3.40;99.90
20459;DHT22;10388;52.314;7.938;2023-11-22T16:54:47;3.40;99.90
20459;DHT22;10388;52.314;7.938;2023-11-22T16:57:20;3.40;99.90
20459;DHT22;10388;52.314;7.938;2023-11-22T16:59:51;3.40;99.90
20459;DHT22;10388;52.314;7.938;2023-11-22T17:02:21;3.40;99.90
20459;DHT22;10388;52.314;7.938;2023-11-22T17:04:52;3.40;99.90
20459;DHT22;10388;52.314;7.938;2023-11-22T17:07:25;3.40;99.90
20459;DHT22;10388;52.314;7.938;2023-11-22T17:09:56;3.40;99.90
20459;DHT22;10388;52.314;7.938;2023-11-22T17:12:26;3.40;99.90
20459;DHT22;10388;52.314;7.938;2023-11-22T17:14:59;3.40;99.90
20459;DHT22;10388;52.314;7.938;2023-11-22T17:17:29;3.30;99.90
20459;DHT22;10388;52.314;7.938;2023-11-22T17:20:00;3.30;99.90
20459;DHT22;10388;52.314;7.938;2023-11-22T17:22:31;3.30;99.90
20459;DHT22;10388;52.314;7.938;2023-11-22T17:25:02;3.30;99.90
20459;DHT22;10388;52.314;7.938;2023-11-22T17:27:40;3.30;99.90
20459;DHT22;10388;52.314;7.938;2023-11-22T17:30:12;3.30;99.90
20459;DHT22;10388;52.314;7.938;2023-11-22T17:32:42;3.30;99.90
20459;DHT22;10388;52.314;7.938;2023-11-22T17:35:13;3.30;99.90
20459;DHT22;10388;52.314;7.938;2023-11-22T17:37:44;3.30;99.90
20459;DHT22;10388;52.314;7.938;2023-11-22T17:40:14;3.30;99.90
20459;DHT22;10388;52.314;7.938;2023-11-22T17:42:46;3.30;99.90
20459;DHT22;10388;52.314;7.938;2023-11-22T17:45:17;3.30;99.90
20459;DHT22;10388;52.314;7.938;2023-11-22T17:47:47;3.30;99.90
20459;DHT22;10388;52.314;7.938;2023-11-22T17:50:18;3.20;99.90